Unbenanntes Dokument
Flugplatz Bielefeld Platzwetter

 

Aktuelles Platzwetter am Flugplatz Bielefeld EDLI

21.11.17 ,10:12 Uhr

METAR EDLI 211012Z 26008KT 8000 -RA ///003 10/10 Q1011

 

Windwerte

 

Wolkenuntergrenzen

Wind aktuell:250 ° mit 9 kt
Wind 10 min Extrem:
230 ° bis 290 ° mit 5 kt bis 12 kt
Seitenwindkomponente: 3.7 kt
Wolkengrenze 1: 400 ft
Wolkengrenze 2:
Wolkengrenze 3:

Webcam

Temperatur

       

Sichtweite:

8.000 Meter

10.4 °C
Taupunkt: 10.4 °C
Luftfeuchtigkeit: 100 %

Luftdruck:

QNH: 1011 hPa (29.85 in Hg)
QFE: 995 hPa (29.38 in Hg)

Diese Daten werden automatisch ermittelt bzw. übertragen und sind nicht geprüft. Für die Richtigkeit wird daher keine Gewähr übernommen. Sie ersetzen im übrigen nicht die Flugwetterberatung. Alle Zeitangaben beziehen sich auf UTC. Die Seite wird einmal die Minute aktualisiert! Sollten Sie ein ältere Seite haben, so drücken Sie bitte auf den Reload Button Ihres Browsers!